sensor_id;sensor_type;location;lat;lon;timestamp;P1;durP1;ratioP1;P2;durP2;ratioP2
11548;SDS011;61444;59.472;18.306;2022-10-30T00:01:26;1.07;;;0.53;;
11548;SDS011;61444;59.472;18.306;2022-10-30T00:03:34;0.90;;;0.60;;
11548;SDS011;61444;59.472;18.306;2022-10-30T00:05:44;2.20;;;0.70;;
11548;SDS011;61444;59.472;18.306;2022-10-30T00:07:54;1.90;;;0.63;;
11548;SDS011;61444;59.472;18.306;2022-10-30T00:10:05;1.70;;;0.60;;
11548;SDS011;61444;59.472;18.306;2022-10-30T00:12:15;0.80;;;0.50;;
11548;SDS011;61444;59.472;18.306;2022-10-30T00:14:24;1.07;;;0.70;;
11548;SDS011;61444;59.472;18.306;2022-10-30T00:16:33;1.27;;;0.57;;
11548;SDS011;61444;59.472;18.306;2022-10-30T00:18:42;0.70;;;0.43;;
11548;SDS011;61444;59.472;18.306;2022-10-30T00:20:51;1.60;;;0.53;;
11548;SDS011;61444;59.472;18.306;2022-10-30T00:23:00;0.83;;;0.60;;
11548;SDS011;61444;59.472;18.306;2022-10-30T00:25:09;3.13;;;0.97;;
11548;SDS011;61444;59.472;18.306;2022-10-30T00:27:19;1.43;;;0.70;;
11548;SDS011;61444;59.472;18.306;2022-10-30T00:29:28;1.47;;;0.60;;
11548;SDS011;61444;59.472;18.306;2022-10-30T00:31:37;1.00;;;0.60;;
11548;SDS011;61444;59.472;18.306;2022-10-30T00:33:47;2.30;;;0.77;;
11548;SDS011;61444;59.472;18.306;2022-10-30T00:35:56;1.00;;;0.70;;
11548;SDS011;61444;59.472;18.306;2022-10-30T00:38:05;3.27;;;0.80;;
11548;SDS011;61444;59.472;18.306;2022-10-30T00:40:15;0.80;;;0.50;;
11548;SDS011;61444;59.472;18.306;2022-10-30T00:42:27;1.00;;;0.60;;
11548;SDS011;61444;59.472;18.306;2022-10-30T00:44:37;0.97;;;0.57;;
11548;SDS011;61444;59.472;18.306;2022-10-30T00:46:49;2.57;;;0.70;;
11548;SDS011;61444;59.472;18.306;2022-10-30T00:48:59;1.77;;;0.60;;
11548;SDS011;61444;59.472;18.306;2022-10-30T00:51:09;2.87;;;0.80;;
11548;SDS011;61444;59.472;18.306;2022-10-30T00:53:19;1.53;;;0.50;;
11548;SDS011;61444;59.472;18.306;2022-10-30T00:55:30;2.90;;;0.70;;
11548;SDS011;61444;59.472;18.306;2022-10-30T00:57:41;0.93;;;0.63;;
11548;SDS011;61444;59.472;18.306;2022-10-30T00:59:50;2.10;;;0.73;;
11548;SDS011;61444;59.472;18.306;2022-10-30T01:02:00;1.43;;;0.63;;
11548;SDS011;61444;59.472;18.306;2022-10-30T01:04:09;3.50;;;0.73;;
11548;SDS011;61444;59.472;18.306;2022-10-30T01:06:19;2.10;;;0.70;;
11548;SDS011;61444;59.472;18.306;2022-10-30T01:08:28;1.27;;;0.60;;
11548;SDS011;61444;59.472;18.306;2022-10-30T01:10:37;1.20;;;0.60;;
11548;SDS011;61444;59.472;18.306;2022-10-30T01:12:48;1.07;;;0.70;;
11548;SDS011;61444;59.472;18.306;2022-10-30T01:14:58;1.63;;;0.70;;
11548;SDS011;61444;59.472;18.306;2022-10-30T01:17:11;2.33;;;0.70;;
11548;SDS011;61444;59.472;18.306;2022-10-30T01:19:24;2.20;;;0.50;;
11548;SDS011;61444;59.472;18.306;2022-10-30T01:21:42;1.13;;;0.50;;
11548;SDS011;61444;59.472;18.306;2022-10-30T01:23:55;3.60;;;0.80;;
11548;SDS011;61444;59.472;18.306;2022-10-30T01:26:11;1.60;;;0.70;;
11548;SDS011;61444;59.472;18.306;2022-10-30T01:28:31;1.93;;;0.80;;
11548;SDS011;61444;59.472;18.306;2022-10-30T01:30:46;0.70;;;0.50;;
11548;SDS011;61444;59.472;18.306;2022-10-30T01:33:03;6.30;;;0.63;;
11548;SDS011;61444;59.472;18.306;2022-10-30T01:35:17;0.87;;;0.60;;
11548;SDS011;61444;59.472;18.306;2022-10-30T01:37:30;0.93;;;0.63;;
11548;SDS011;61444;59.472;18.306;2022-10-30T01:39:40;2.67;;;0.80;;
11548;SDS011;61444;59.472;18.306;2022-10-30T01:41:49;0.90;;;0.60;;
11548;SDS011;61444;59.472;18.306;2022-10-30T01:44:00;0.90;;;0.50;;
11548;SDS011;61444;59.472;18.306;2022-10-30T01:46:15;1.23;;;0.47;;
11548;SDS011;61444;59.472;18.306;2022-10-30T01:50:58;1.67;;;0.70;;
11548;SDS011;61444;59.472;18.306;2022-10-30T01:53:14;2.77;;;0.70;;
11548;SDS011;61444;59.472;18.306;2022-10-30T01:55:28;1.80;;;0.97;;
11548;SDS011;61444;59.472;18.306;2022-10-30T01:57:40;1.10;;;0.63;;
11548;SDS011;61444;59.472;18.306;2022-10-30T01:59:52;1.60;;;0.60;;
11548;SDS011;61444;59.472;18.306;2022-10-30T14:07:29;1.30;;;0.70;;
11548;SDS011;61444;59.472;18.306;2022-10-30T14:09:40;1.27;;;0.70;;
11548;SDS011;61444;59.472;18.306;2022-10-30T14:11:52;2.60;;;0.80;;
11548;SDS011;61444;59.472;18.306;2022-10-30T14:14:05;1.00;;;0.70;;
11548;SDS011;61444;59.472;18.306;2022-10-30T14:16:32;1.43;;;0.70;;
11548;SDS011;61444;59.472;18.306;2022-10-30T14:18:42;0.90;;;0.60;;
11548;SDS011;61444;59.472;18.306;2022-10-30T14:20:51;0.90;;;0.70;;
11548;SDS011;61444;59.472;18.306;2022-10-30T14:23:07;1.07;;;0.60;;
11548;SDS011;61444;59.472;18.306;2022-10-30T14:25:16;2.10;;;0.67;;
11548;SDS011;61444;59.472;18.306;2022-10-30T14:27:25;1.77;;;0.70;;
11548;SDS011;61444;59.472;18.306;2022-10-30T14:29:44;0.80;;;0.60;;
11548;SDS011;61444;59.472;18.306;2022-10-30T14:31:54;2.73;;;0.80;;
11548;SDS011;61444;59.472;18.306;2022-10-30T14:34:02;2.50;;;0.67;;
11548;SDS011;61444;59.472;18.306;2022-10-30T14:36:11;0.93;;;0.60;;
11548;SDS011;61444;59.472;18.306;2022-10-30T14:38:24;2.33;;;1.03;;
11548;SDS011;61444;59.472;18.306;2022-10-30T14:40:36;1.43;;;0.70;;
11548;SDS011;61444;59.472;18.306;2022-10-30T14:42:46;2.67;;;0.90;;
11548;SDS011;61444;59.472;18.306;2022-10-30T14:45:00;2.07;;;0.80;;
11548;SDS011;61444;59.472;18.306;2022-10-30T14:47:27;4.23;;;1.03;;
11548;SDS011;61444;59.472;18.306;2022-10-30T14:49:41;1.70;;;0.80;;
11548;SDS011;61444;59.472;18.306;2022-10-30T14:51:53;2.20;;;1.10;;
11548;SDS011;61444;59.472;18.306;2022-10-30T14:54:09;2.30;;;1.03;;
11548;SDS011;61444;59.472;18.306;2022-10-30T14:56:26;1.70;;;0.90;;
11548;SDS011;61444;59.472;18.306;2022-10-30T14:58:37;2.43;;;1.07;;
11548;SDS011;61444;59.472;18.306;2022-10-30T15:00:45;2.20;;;1.20;;
11548;SDS011;61444;59.472;18.306;2022-10-30T15:02:54;6.83;;;3.07;;
11548;SDS011;61444;59.472;18.306;2022-10-30T15:05:18;12.83;;;4.17;;
11548;SDS011;61444;59.472;18.306;2022-10-30T15:07:37;12.83;;;4.17;;
11548;SDS011;61444;59.472;18.306;2022-10-30T15:09:52;8.30;;;4.23;;
11548;SDS011;61444;59.472;18.306;2022-10-30T15:12:10;6.67;;;3.80;;
11548;SDS011;61444;59.472;18.306;2022-10-30T15:14:23;8.03;;;4.37;;
11548;SDS011;61444;59.472;18.306;2022-10-30T15:16:54;7.13;;;3.70;;
11548;SDS011;61444;59.472;18.306;2022-10-30T15:19:03;7.67;;;3.90;;
11548;SDS011;61444;59.472;18.306;2022-10-30T15:21:14;6.97;;;4.03;;
11548;SDS011;61444;59.472;18.306;2022-10-30T15:23:28;6.53;;;3.80;;
11548;SDS011;61444;59.472;18.306;2022-10-30T15:25:43;7.50;;;3.83;;
11548;SDS011;61444;59.472;18.306;2022-10-30T15:27:53;7.80;;;3.53;;
11548;SDS011;61444;59.472;18.306;2022-10-30T15:30:03;7.37;;;3.57;;
11548;SDS011;61444;59.472;18.306;2022-10-30T15:32:14;23.97;;;9.53;;
11548;SDS011;61444;59.472;18.306;2022-10-30T15:34:22;11.87;;;5.27;;
11548;SDS011;61444;59.472;18.306;2022-10-30T15:36:33;7.33;;;4.37;;
11548;SDS011;61444;59.472;18.306;2022-10-30T15:38:42;9.47;;;4.07;;
11548;SDS011;61444;59.472;18.306;2022-10-30T15:40:55;6.07;;;3.73;;
11548;SDS011;61444;59.472;18.306;2022-10-30T15:43:06;11.77;;;5.07;;
11548;SDS011;61444;59.472;18.306;2022-10-30T15:45:18;8.90;;;4.83;;
11548;SDS011;61444;59.472;18.306;2022-10-30T15:47:27;11.23;;;6.17;;
11548;SDS011;61444;59.472;18.306;2022-10-30T15:49:36;12.57;;;6.20;;
11548;SDS011;61444;59.472;18.306;2022-10-30T15:51:45;13.03;;;6.17;;
11548;SDS011;61444;59.472;18.306;2022-10-30T15:53:54;15.67;;;5.90;;
11548;SDS011;61444;59.472;18.306;2022-10-30T15:56:06;15.80;;;7.47;;
11548;SDS011;61444;59.472;18.306;2022-10-30T15:58:22;20.97;;;8.00;;
11548;SDS011;61444;59.472;18.306;2022-10-30T16:00:32;17.20;;;8.23;;
11548;SDS011;61444;59.472;18.306;2022-10-30T16:02:41;16.40;;;8.87;;
11548;SDS011;61444;59.472;18.306;2022-10-30T16:04:54;16.40;;;7.13;;
11548;SDS011;61444;59.472;18.306;2022-10-30T16:07:14;12.93;;;7.83;;
11548;SDS011;61444;59.472;18.306;2022-10-30T16:09:25;15.60;;;7.37;;
11548;SDS011;61444;59.472;18.306;2022-10-30T16:11:35;19.23;;;8.77;;
11548;SDS011;61444;59.472;18.306;2022-10-30T16:13:44;16.37;;;7.93;;
11548;SDS011;61444;59.472;18.306;2022-10-30T16:15:52;21.63;;;9.03;;
11548;SDS011;61444;59.472;18.306;2022-10-30T16:18:03;20.43;;;9.23;;
11548;SDS011;61444;59.472;18.306;2022-10-30T16:20:13;23.27;;;10.23;;
11548;SDS011;61444;59.472;18.306;2022-10-30T16:22:22;21.77;;;9.87;;
11548;SDS011;61444;59.472;18.306;2022-10-30T16:24:32;24.03;;;10.90;;
11548;SDS011;61444;59.472;18.306;2022-10-30T16:26:42;19.50;;;10.60;;
11548;SDS011;61444;59.472;18.306;2022-10-30T16:28:52;25.43;;;17.33;;
11548;SDS011;61444;59.472;18.306;2022-10-30T16:31:01;22.97;;;15.10;;
11548;SDS011;61444;59.472;18.306;2022-10-30T16:33:10;22.07;;;13.30;;
11548;SDS011;61444;59.472;18.306;2022-10-30T16:35:19;23.07;;;13.70;;
11548;SDS011;61444;59.472;18.306;2022-10-30T16:37:31;24.23;;;13.73;;
11548;SDS011;61444;59.472;18.306;2022-10-30T16:39:40;24.67;;;16.20;;
11548;SDS011;61444;59.472;18.306;2022-10-30T16:41:51;29.87;;;17.63;;
11548;SDS011;61444;59.472;18.306;2022-10-30T16:44:07;25.57;;;17.43;;
11548;SDS011;61444;59.472;18.306;2022-10-30T16:48:40;32.13;;;20.10;;
11548;SDS011;61444;59.472;18.306;2022-10-30T16:50:54;42.77;;;24.63;;
11548;SDS011;61444;59.472;18.306;2022-10-30T16:53:06;41.27;;;25.23;;
11548;SDS011;61444;59.472;18.306;2022-10-30T16:55:17;38.67;;;27.47;;
11548;SDS011;61444;59.472;18.306;2022-10-30T16:57:30;35.30;;;23.87;;
11548;SDS011;61444;59.472;18.306;2022-10-30T16:59:42;34.63;;;22.30;;
11548;SDS011;61444;59.472;18.306;2022-10-30T17:01:52;34.33;;;22.03;;
11548;SDS011;61444;59.472;18.306;2022-10-30T17:04:03;34.30;;;22.53;;
11548;SDS011;61444;59.472;18.306;2022-10-30T17:06:24;34.07;;;19.57;;
11548;SDS011;61444;59.472;18.306;2022-10-30T17:08:38;36.07;;;24.10;;
11548;SDS011;61444;59.472;18.306;2022-10-30T17:10:53;42.87;;;27.77;;
11548;SDS011;61444;59.472;18.306;2022-10-30T17:15:31;46.57;;;26.57;;
11548;SDS011;61444;59.472;18.306;2022-10-30T17:17:40;38.50;;;24.10;;
11548;SDS011;61444;59.472;18.306;2022-10-30T17:19:53;30.90;;;20.97;;
11548;SDS011;61444;59.472;18.306;2022-10-30T17:22:03;30.60;;;21.40;;
11548;SDS011;61444;59.472;18.306;2022-10-30T17:24:16;30.20;;;19.07;;
11548;SDS011;61444;59.472;18.306;2022-10-30T17:26:25;34.77;;;18.60;;
11548;SDS011;61444;59.472;18.306;2022-10-30T17:28:35;24.37;;;14.40;;
11548;SDS011;61444;59.472;18.306;2022-10-30T17:30:45;28.07;;;14.87;;
11548;SDS011;61444;59.472;18.306;2022-10-30T17:32:54;25.00;;;15.47;;
11548;SDS011;61444;59.472;18.306;2022-10-30T17:35:11;29.63;;;16.30;;
11548;SDS011;61444;59.472;18.306;2022-10-30T17:37:20;23.57;;;16.00;;
11548;SDS011;61444;59.472;18.306;2022-10-30T17:39:29;26.60;;;17.13;;
11548;SDS011;61444;59.472;18.306;2022-10-30T17:41:38;26.07;;;16.33;;
11548;SDS011;61444;59.472;18.306;2022-10-30T17:43:47;27.37;;;16.20;;
11548;SDS011;61444;59.472;18.306;2022-10-30T17:45:58;63.53;;;31.73;;
11548;SDS011;61444;59.472;18.306;2022-10-30T17:48:09;30.27;;;19.47;;
11548;SDS011;61444;59.472;18.306;2022-10-30T17:50:18;28.40;;;17.63;;
11548;SDS011;61444;59.472;18.306;2022-10-30T17:52:27;34.23;;;18.97;;
11548;SDS011;61444;59.472;18.306;2022-10-30T17:54:36;35.00;;;21.70;;
11548;SDS011;61444;59.472;18.306;2022-10-30T17:56:45;39.70;;;23.60;;
11548;SDS011;61444;59.472;18.306;2022-10-30T17:58:54;45.07;;;25.37;;
11548;SDS011;61444;59.472;18.306;2022-10-30T18:01:06;46.83;;;24.63;;
11548;SDS011;61444;59.472;18.306;2022-10-30T18:03:15;54.10;;;26.83;;
11548;SDS011;61444;59.472;18.306;2022-10-30T18:05:24;35.37;;;19.77;;
11548;SDS011;61444;59.472;18.306;2022-10-30T18:07:37;30.63;;;18.70;;
11548;SDS011;61444;59.472;18.306;2022-10-30T18:09:45;25.80;;;16.23;;
11548;SDS011;61444;59.472;18.306;2022-10-30T18:11:54;30.57;;;16.37;;
11548;SDS011;61444;59.472;18.306;2022-10-30T18:14:02;35.13;;;18.13;;
11548;SDS011;61444;59.472;18.306;2022-10-30T18:16:13;34.37;;;19.63;;
11548;SDS011;61444;59.472;18.306;2022-10-30T18:18:22;31.90;;;17.77;;
11548;SDS011;61444;59.472;18.306;2022-10-30T18:20:31;30.20;;;18.73;;
11548;SDS011;61444;59.472;18.306;2022-10-30T18:22:40;31.90;;;19.53;;
11548;SDS011;61444;59.472;18.306;2022-10-30T18:24:49;32.80;;;19.30;;
11548;SDS011;61444;59.472;18.306;2022-10-30T18:26:57;37.57;;;19.93;;
11548;SDS011;61444;59.472;18.306;2022-10-30T18:29:06;31.97;;;20.40;;
11548;SDS011;61444;59.472;18.306;2022-10-30T18:31:16;37.03;;;20.17;;
11548;SDS011;61444;59.472;18.306;2022-10-30T18:33:25;32.00;;;19.77;;
11548;SDS011;61444;59.472;18.306;2022-10-30T18:35:34;35.07;;;19.67;;
11548;SDS011;61444;59.472;18.306;2022-10-30T18:37:43;30.67;;;18.73;;
11548;SDS011;61444;59.472;18.306;2022-10-30T18:39:51;31.10;;;17.63;;
11548;SDS011;61444;59.472;18.306;2022-10-30T18:42:00;28.57;;;16.23;;
11548;SDS011;61444;59.472;18.306;2022-10-30T18:44:11;28.37;;;16.23;;
11548;SDS011;61444;59.472;18.306;2022-10-30T18:46:21;28.10;;;16.67;;
11548;SDS011;61444;59.472;18.306;2022-10-30T18:48:30;36.27;;;19.37;;
11548;SDS011;61444;59.472;18.306;2022-10-30T18:50:39;29.37;;;16.00;;
11548;SDS011;61444;59.472;18.306;2022-10-30T18:52:48;32.30;;;13.43;;
11548;SDS011;61444;59.472;18.306;2022-10-30T18:54:57;31.33;;;17.30;;
11548;SDS011;61444;59.472;18.306;2022-10-30T18:57:05;29.00;;;16.67;;
11548;SDS011;61444;59.472;18.306;2022-10-30T18:59:14;25.97;;;15.80;;
11548;SDS011;61444;59.472;18.306;2022-10-30T19:01:24;23.33;;;14.30;;
11548;SDS011;61444;59.472;18.306;2022-10-30T19:03:33;21.33;;;12.90;;
11548;SDS011;61444;59.472;18.306;2022-10-30T19:05:42;20.43;;;12.37;;
11548;SDS011;61444;59.472;18.306;2022-10-30T19:07:51;18.73;;;10.43;;
11548;SDS011;61444;59.472;18.306;2022-10-30T19:10:00;22.07;;;12.30;;
11548;SDS011;61444;59.472;18.306;2022-10-30T19:12:10;19.33;;;12.87;;
11548;SDS011;61444;59.472;18.306;2022-10-30T19:14:19;21.60;;;12.90;;
11548;SDS011;61444;59.472;18.306;2022-10-30T19:16:29;20.00;;;12.57;;
11548;SDS011;61444;59.472;18.306;2022-10-30T19:18:38;21.43;;;13.53;;
11548;SDS011;61444;59.472;18.306;2022-10-30T19:20:47;21.13;;;13.43;;
11548;SDS011;61444;59.472;18.306;2022-10-30T19:23:12;20.33;;;13.00;;
11548;SDS011;61444;59.472;18.306;2022-10-30T19:25:24;18.27;;;12.90;;
11548;SDS011;61444;59.472;18.306;2022-10-30T19:27:34;19.57;;;12.10;;
11548;SDS011;61444;59.472;18.306;2022-10-30T19:29:45;25.97;;;13.23;;
11548;SDS011;61444;59.472;18.306;2022-10-30T19:31:57;23.40;;;12.67;;
11548;SDS011;61444;59.472;18.306;2022-10-30T19:34:06;17.57;;;12.03;;
11548;SDS011;61444;59.472;18.306;2022-10-30T19:36:26;22.83;;;11.97;;
11548;SDS011;61444;59.472;18.306;2022-10-30T19:38:34;19.93;;;12.63;;
11548;SDS011;61444;59.472;18.306;2022-10-30T19:40:43;21.40;;;11.57;;
11548;SDS011;61444;59.472;18.306;2022-10-30T19:42:52;22.93;;;12.97;;
11548;SDS011;61444;59.472;18.306;2022-10-30T19:45:02;24.97;;;14.53;;
11548;SDS011;61444;59.472;18.306;2022-10-30T19:47:12;28.23;;;16.47;;
11548;SDS011;61444;59.472;18.306;2022-10-30T19:49:20;39.10;;;18.73;;
11548;SDS011;61444;59.472;18.306;2022-10-30T19:51:29;29.53;;;16.80;;
11548;SDS011;61444;59.472;18.306;2022-10-30T19:53:38;29.73;;;16.67;;
11548;SDS011;61444;59.472;18.306;2022-10-30T19:55:47;31.37;;;15.90;;
11548;SDS011;61444;59.472;18.306;2022-10-30T19:57:56;24.87;;;14.17;;
11548;SDS011;61444;59.472;18.306;2022-10-30T20:00:08;21.63;;;13.07;;
11548;SDS011;61444;59.472;18.306;2022-10-30T20:02:22;22.90;;;13.00;;
11548;SDS011;61444;59.472;18.306;2022-10-30T20:04:30;23.07;;;13.63;;
11548;SDS011;61444;59.472;18.306;2022-10-30T20:06:39;26.33;;;12.70;;
11548;SDS011;61444;59.472;18.306;2022-10-30T20:08:48;26.60;;;13.77;;
11548;SDS011;61444;59.472;18.306;2022-10-30T20:10:57;24.93;;;17.17;;
11548;SDS011;61444;59.472;18.306;2022-10-30T20:13:09;26.20;;;15.50;;
11548;SDS011;61444;59.472;18.306;2022-10-30T20:15:26;32.60;;;18.97;;
11548;SDS011;61444;59.472;18.306;2022-10-30T20:17:36;32.40;;;17.43;;
11548;SDS011;61444;59.472;18.306;2022-10-30T20:19:44;31.20;;;18.13;;
11548;SDS011;61444;59.472;18.306;2022-10-30T20:21:53;33.50;;;18.03;;
11548;SDS011;61444;59.472;18.306;2022-10-30T20:24:05;30.70;;;18.17;;
11548;SDS011;61444;59.472;18.306;2022-10-30T20:26:17;32.20;;;17.80;;
11548;SDS011;61444;59.472;18.306;2022-10-30T20:28:30;27.47;;;16.37;;
11548;SDS011;61444;59.472;18.306;2022-10-30T20:30:40;30.43;;;16.40;;
11548;SDS011;61444;59.472;18.306;2022-10-30T20:32:50;27.30;;;16.03;;
11548;SDS011;61444;59.472;18.306;2022-10-30T20:34:58;22.93;;;12.60;;
11548;SDS011;61444;59.472;18.306;2022-10-30T20:37:12;23.60;;;13.90;;
11548;SDS011;61444;59.472;18.306;2022-10-30T20:39:21;20.40;;;12.03;;
11548;SDS011;61444;59.472;18.306;2022-10-30T20:41:29;25.33;;;12.53;;
11548;SDS011;61444;59.472;18.306;2022-10-30T20:43:41;23.97;;;11.77;;
11548;SDS011;61444;59.472;18.306;2022-10-30T20:45:52;32.50;;;20.63;;
11548;SDS011;61444;59.472;18.306;2022-10-30T20:48:08;32.10;;;17.17;;
11548;SDS011;61444;59.472;18.306;2022-10-30T20:50:17;26.93;;;15.17;;
11548;SDS011;61444;59.472;18.306;2022-10-30T20:52:28;27.93;;;14.67;;
11548;SDS011;61444;59.472;18.306;2022-10-30T20:54:43;20.13;;;13.77;;
11548;SDS011;61444;59.472;18.306;2022-10-30T20:56:52;24.77;;;13.20;;
11548;SDS011;61444;59.472;18.306;2022-10-30T20:59:02;25.10;;;14.43;;
11548;SDS011;61444;59.472;18.306;2022-10-30T21:01:13;22.70;;;13.30;;
11548;SDS011;61444;59.472;18.306;2022-10-30T21:03:26;28.90;;;14.20;;
11548;SDS011;61444;59.472;18.306;2022-10-30T21:05:35;23.50;;;13.30;;
11548;SDS011;61444;59.472;18.306;2022-10-30T21:07:50;23.57;;;12.77;;
11548;SDS011;61444;59.472;18.306;2022-10-30T21:09:59;22.57;;;13.07;;
11548;SDS011;61444;59.472;18.306;2022-10-30T21:12:13;21.47;;;11.97;;
11548;SDS011;61444;59.472;18.306;2022-10-30T21:14:29;24.30;;;13.87;;
11548;SDS011;61444;59.472;18.306;2022-10-30T21:16:37;24.50;;;13.23;;
11548;SDS011;61444;59.472;18.306;2022-10-30T21:18:50;22.43;;;13.40;;
11548;SDS011;61444;59.472;18.306;2022-10-30T21:20:59;25.73;;;13.23;;
11548;SDS011;61444;59.472;18.306;2022-10-30T21:23:11;24.00;;;13.80;;
11548;SDS011;61444;59.472;18.306;2022-10-30T21:25:20;23.87;;;12.70;;
11548;SDS011;61444;59.472;18.306;2022-10-30T21:27:28;19.90;;;12.30;;
11548;SDS011;61444;59.472;18.306;2022-10-30T21:29:37;20.77;;;12.27;;
11548;SDS011;61444;59.472;18.306;2022-10-30T21:31:46;21.33;;;11.77;;
11548;SDS011;61444;59.472;18.306;2022-10-30T21:33:57;21.53;;;11.07;;
11548;SDS011;61444;59.472;18.306;2022-10-30T21:36:07;24.63;;;11.73;;
11548;SDS011;61444;59.472;18.306;2022-10-30T21:38:18;19.67;;;11.83;;
11548;SDS011;61444;59.472;18.306;2022-10-30T21:40:27;21.90;;;12.27;;
11548;SDS011;61444;59.472;18.306;2022-10-30T21:42:36;23.57;;;12.87;;
11548;SDS011;61444;59.472;18.306;2022-10-30T21:44:44;20.17;;;11.77;;
11548;SDS011;61444;59.472;18.306;2022-10-30T21:46:54;23.33;;;12.53;;
11548;SDS011;61444;59.472;18.306;2022-10-30T21:49:04;20.67;;;11.83;;
11548;SDS011;61444;59.472;18.306;2022-10-30T21:51:14;20.00;;;11.17;;
11548;SDS011;61444;59.472;18.306;2022-10-30T21:53:23;22.37;;;10.90;;
11548;SDS011;61444;59.472;18.306;2022-10-30T21:55:31;21.20;;;11.40;;
11548;SDS011;61444;59.472;18.306;2022-10-30T21:57:42;19.57;;;11.17;;
11548;SDS011;61444;59.472;18.306;2022-10-30T21:59:51;18.77;;;10.93;;
11548;SDS011;61444;59.472;18.306;2022-10-30T22:02:02;19.73;;;9.77;;
11548;SDS011;61444;59.472;18.306;2022-10-30T22:04:12;16.90;;;9.27;;
11548;SDS011;61444;59.472;18.306;2022-10-30T22:06:21;16.10;;;9.63;;
11548;SDS011;61444;59.472;18.306;2022-10-30T22:08:30;16.67;;;8.93;;
11548;SDS011;61444;59.472;18.306;2022-10-30T22:10:39;18.10;;;8.93;;
11548;SDS011;61444;59.472;18.306;2022-10-30T22:12:50;16.23;;;10.50;;
11548;SDS011;61444;59.472;18.306;2022-10-30T22:15:05;16.67;;;10.33;;
11548;SDS011;61444;59.472;18.306;2022-10-30T22:17:14;14.37;;;9.00;;
11548;SDS011;61444;59.472;18.306;2022-10-30T22:19:24;15.37;;;10.07;;
11548;SDS011;61444;59.472;18.306;2022-10-30T22:21:34;16.77;;;9.60;;
11548;SDS011;61444;59.472;18.306;2022-10-30T22:23:44;16.27;;;8.73;;
11548;SDS011;61444;59.472;18.306;2022-10-30T22:25:53;15.50;;;8.43;;
11548;SDS011;61444;59.472;18.306;2022-10-30T22:28:02;16.50;;;9.13;;
11548;SDS011;61444;59.472;18.306;2022-10-30T22:30:11;17.67;;;9.60;;
11548;SDS011;61444;59.472;18.306;2022-10-30T22:32:20;18.40;;;9.33;;
11548;SDS011;61444;59.472;18.306;2022-10-30T22:34:30;15.53;;;8.37;;
11548;SDS011;61444;59.472;18.306;2022-10-30T22:36:39;14.80;;;8.20;;
11548;SDS011;61444;59.472;18.306;2022-10-30T22:38:51;16.50;;;8.40;;
11548;SDS011;61444;59.472;18.306;2022-10-30T22:41:07;14.33;;;8.90;;
11548;SDS011;61444;59.472;18.306;2022-10-30T22:43:16;13.93;;;8.87;;
11548;SDS011;61444;59.472;18.306;2022-10-30T22:45:24;19.90;;;8.40;;
11548;SDS011;61444;59.472;18.306;2022-10-30T22:47:33;17.10;;;9.00;;
11548;SDS011;61444;59.472;18.306;2022-10-30T22:49:48;11.33;;;8.10;;
11548;SDS011;61444;59.472;18.306;2022-10-30T22:51:56;15.70;;;7.63;;
11548;SDS011;61444;59.472;18.306;2022-10-30T22:54:06;12.57;;;8.60;;
11548;SDS011;61444;59.472;18.306;2022-10-30T22:56:15;14.87;;;8.37;;
11548;SDS011;61444;59.472;18.306;2022-10-30T22:58:27;12.33;;;8.17;;
11548;SDS011;61444;59.472;18.306;2022-10-30T23:00:36;11.50;;;7.33;;
11548;SDS011;61444;59.472;18.306;2022-10-30T23:02:44;12.37;;;8.37;;
11548;SDS011;61444;59.472;18.306;2022-10-30T23:04:57;14.53;;;8.90;;
11548;SDS011;61444;59.472;18.306;2022-10-30T23:07:06;12.47;;;7.70;;
11548;SDS011;61444;59.472;18.306;2022-10-30T23:09:16;13.87;;;8.37;;
11548;SDS011;61444;59.472;18.306;2022-10-30T23:11:26;12.93;;;7.73;;
11548;SDS011;61444;59.472;18.306;2022-10-30T23:13:38;13.33;;;7.80;;
11548;SDS011;61444;59.472;18.306;2022-10-30T23:15:47;10.10;;;6.93;;
11548;SDS011;61444;59.472;18.306;2022-10-30T23:17:55;11.70;;;7.77;;
11548;SDS011;61444;59.472;18.306;2022-10-30T23:20:07;10.73;;;7.50;;
11548;SDS011;61444;59.472;18.306;2022-10-30T23:22:16;13.43;;;6.93;;
11548;SDS011;61444;59.472;18.306;2022-10-30T23:24:24;11.53;;;7.13;;
11548;SDS011;61444;59.472;18.306;2022-10-30T23:26:33;13.67;;;7.73;;
11548;SDS011;61444;59.472;18.306;2022-10-30T23:28:43;10.70;;;7.50;;
11548;SDS011;61444;59.472;18.306;2022-10-30T23:30:52;11.00;;;7.00;;
11548;SDS011;61444;59.472;18.306;2022-10-30T23:33:01;13.27;;;7.70;;
11548;SDS011;61444;59.472;18.306;2022-10-30T23:35:11;12.33;;;7.77;;
11548;SDS011;61444;59.472;18.306;2022-10-30T23:37:19;11.77;;;7.27;;
11548;SDS011;61444;59.472;18.306;2022-10-30T23:39:29;12.40;;;7.53;;
11548;SDS011;61444;59.472;18.306;2022-10-30T23:41:40;9.87;;;6.73;;
11548;SDS011;61444;59.472;18.306;2022-10-30T23:43:51;11.83;;;7.00;;
11548;SDS011;61444;59.472;18.306;2022-10-30T23:46:01;12.30;;;7.40;;
11548;SDS011;61444;59.472;18.306;2022-10-30T23:48:10;12.67;;;7.33;;
11548;SDS011;61444;59.472;18.306;2022-10-30T23:50:23;11.93;;;7.90;;
11548;SDS011;61444;59.472;18.306;2022-10-30T23:52:32;12.77;;;7.77;;
11548;SDS011;61444;59.472;18.306;2022-10-30T23:54:41;12.17;;;7.73;;
11548;SDS011;61444;59.472;18.306;2022-10-30T23:56:49;12.37;;;8.00;;
11548;SDS011;61444;59.472;18.306;2022-10-30T23:58:58;12.60;;;7.93;;
